ABY72C OEJN-OMSJ
Flight info
| Callsign | ABY72C |
|---|---|
| Flight time | N/A |
| Altitude | 35000 |
| Route | EGREP2W EGREP T532 KODIS Y214 RAPMA/N0461F290 Y214 KUTNA M440 KATIT M628 RIGIL G783 ASPED Q308 PEDOG/N0406F210 Q308 ORKOB T891 NOLSU NOLSU2M |
| Aircraft | A20N/M-SDE2E3FGHIRWXY/LB1 |
Departure
| Time | 2026-04-28 09:18 |
|---|---|
| Airport | King Abdulaziz International Airport (OEJN) |
Arrival
| Time | N/A |
|---|---|
| Airport | Sharjah International Airport (OMSJ) |
| Time | Latitude | Longitude | Altitude | Speed | Heading |
|---|---|---|---|---|---|
| 2026-04-28 08:58 | 21.67139 | 39.16562 | 37 ft | 0 kts | 190° |
| 2026-04-28 09:05 | 21.67151 | 39.16565 | 37 ft | 2 kts | 190° |
| 2026-04-28 09:05 | 21.67166 | 39.16568 | 37 ft | 2 kts | 190° |
| 2026-04-28 09:06 | 21.67181 | 39.16571 | 37 ft | 2 kts | 194° |
| 2026-04-28 09:06 | 21.67195 | 39.16575 | 37 ft | 2 kts | 205° |
| 2026-04-28 09:06 | 21.67208 | 39.16583 | 36 ft | 2 kts | 215° |
| 2026-04-28 09:06 | 21.67220 | 39.16593 | 36 ft | 2 kts | 225° |
| 2026-04-28 09:07 | 21.67230 | 39.16605 | 33 ft | 2 kts | 234° |
| 2026-04-28 09:07 | 21.67238 | 39.16618 | 36 ft | 2 kts | 244° |
| 2026-04-28 09:07 | 21.67241 | 39.16627 | 37 ft | 0 kts | 264° |
| 2026-04-28 09:07 | 21.67241 | 39.16619 | 36 ft | 2 kts | 268° |
| 2026-04-28 09:11 | 21.67242 | 39.16598 | 38 ft | 6 kts | 276° |
| 2026-04-28 09:11 | 21.67254 | 39.16537 | 37 ft | 9 kts | 296° |
| 2026-04-28 09:11 | 21.67307 | 39.16506 | 36 ft | 9 kts | 338° |
| 2026-04-28 09:11 | 21.67370 | 39.16477 | 36 ft | 11 kts | 337° |
| 2026-04-28 09:12 | 21.67435 | 39.16450 | 36 ft | 10 kts | 340° |
| 2026-04-28 09:12 | 21.67503 | 39.16424 | 36 ft | 11 kts | 340° |
| 2026-04-28 09:12 | 21.67558 | 39.16377 | 35 ft | 10 kts | 296° |
| 2026-04-28 09:12 | 21.67546 | 39.16296 | 35 ft | 12 kts | 247° |
| 2026-04-28 09:13 | 21.67509 | 39.16206 | 34 ft | 14 kts | 252° |
| 2026-04-28 09:13 | 21.67436 | 39.16167 | 33 ft | 14 kts | 164° |
| 2026-04-28 09:13 | 21.67334 | 39.16200 | 34 ft | 17 kts | 163° |
| 2026-04-28 09:13 | 21.67216 | 39.16240 | 35 ft | 19 kts | 157° |
| 2026-04-28 09:14 | 21.67109 | 39.16293 | 35 ft | 7 kts | 160° |
| 2026-04-28 09:14 | 21.67052 | 39.16316 | 35 ft | 10 kts | 160° |
| 2026-04-28 09:14 | 21.66977 | 39.16345 | 36 ft | 13 kts | 160° |
| 2026-04-28 09:14 | 21.66883 | 39.16378 | 36 ft | 15 kts | 162° |
| 2026-04-28 09:15 | 21.66772 | 39.16417 | 36 ft | 18 kts | 162° |
| 2026-04-28 09:15 | 21.66644 | 39.16467 | 36 ft | 21 kts | 159° |
| 2026-04-28 09:15 | 21.66539 | 39.16508 | 34 ft | 12 kts | 161° |
| 2026-04-28 09:15 | 21.66453 | 39.16540 | 37 ft | 15 kts | 159° |
| 2026-04-28 09:16 | 21.66373 | 39.16578 | 36 ft | 9 kts | 152° |
| 2026-04-28 09:16 | 21.66311 | 39.16614 | 36 ft | 11 kts | 159° |
| 2026-04-28 09:16 | 21.66227 | 39.16641 | 36 ft | 12 kts | 167° |
| 2026-04-28 09:16 | 21.66174 | 39.16614 | 34 ft | 10 kts | 234° |
| 2026-04-28 09:17 | 21.66149 | 39.16535 | 35 ft | 13 kts | 251° |
| 2026-04-28 09:17 | 21.66154 | 39.16465 | 34 ft | 9 kts | 329° |
| 2026-04-28 09:17 | 21.66220 | 39.16444 | 34 ft | 11 kts | 341° |
| 2026-04-28 09:17 | 21.66470 | 39.16347 | 36 ft | 72 kts | 340° |
| 2026-04-28 09:18 | 21.67135 | 39.16087 | 34 ft | 129 kts | 340° |
| 2026-04-28 09:18 | 21.68074 | 39.15721 | 399 ft | 138 kts | 340° |
| 2026-04-28 09:18 | 21.68906 | 39.15399 | 1221 ft | 121 kts | 339° |
| 2026-04-28 09:18 | 21.69769 | 39.15084 | 1652 ft | 140 kts | 345° |
| 2026-04-28 09:19 | 21.70745 | 39.14855 | 2073 ft | 147 kts | 349° |
| 2026-04-28 09:19 | 21.71739 | 39.14549 | 2614 ft | 154 kts | 336° |
| 2026-04-28 09:19 | 21.72759 | 39.14036 | 3138 ft | 171 kts | 337° |
| 2026-04-28 09:19 | 21.73911 | 39.13512 | 3507 ft | 192 kts | 338° |
| 2026-04-28 09:20 | 21.75242 | 39.12957 | 3893 ft | 217 kts | 339° |
| 2026-04-28 09:20 | 21.76736 | 39.12357 | 4224 ft | 242 kts | 339° |
| 2026-04-28 09:20 | 21.78376 | 39.11704 | 4719 ft | 257 kts | 339° |
| 2026-04-28 09:20 | 21.80085 | 39.11025 | 5322 ft | 270 kts | 338° |
| 2026-04-28 09:21 | 21.81909 | 39.10295 | 5806 ft | 286 kts | 338° |
| 2026-04-28 09:21 | 21.83796 | 39.09541 | 5996 ft | 292 kts | 338° |
| 2026-04-28 09:21 | 21.85693 | 39.08784 | 5990 ft | 288 kts | 338° |
| 2026-04-28 09:21 | 21.87563 | 39.08040 | 5994 ft | 285 kts | 338° |
| 2026-04-28 09:22 | 21.89427 | 39.07294 | 5994 ft | 286 kts | 337° |
| 2026-04-28 09:22 | 21.91258 | 39.06445 | 5992 ft | 287 kts | 334° |
| 2026-04-28 09:22 | 21.93086 | 39.05572 | 5992 ft | 287 kts | 333° |
| 2026-04-28 09:22 | 21.94889 | 39.04710 | 5993 ft | 286 kts | 334° |
| 2026-04-28 09:23 | 21.96713 | 39.03839 | 5990 ft | 286 kts | 334° |
| 2026-04-28 09:23 | 21.98535 | 39.02967 | 5993 ft | 288 kts | 333° |
| 2026-04-28 09:23 | 22.00375 | 39.02088 | 6351 ft | 290 kts | 333° |
| 2026-04-28 09:23 | 22.02217 | 39.01207 | 7220 ft | 287 kts | 333° |
| 2026-04-28 09:24 | 22.04044 | 39.00334 | 8093 ft | 289 kts | 333° |
| 2026-04-28 09:24 | 22.05896 | 38.99446 | 8897 ft | 293 kts | 332° |
| 2026-04-28 09:24 | 22.07134 | 38.98853 | 9443 ft | 295 kts | 332° |
| 2026-04-28 09:24 | 22.09667 | 38.97639 | 10379 ft | 305 kts | 332° |
| 2026-04-28 09:25 | 22.10983 | 38.97005 | 10533 ft | 320 kts | 332° |
| 2026-04-28 09:25 | 22.13098 | 38.96007 | 10746 ft | 344 kts | 337° |
| 2026-04-28 09:25 | 22.15518 | 38.95592 | 11235 ft | 361 kts | 360° |
| 2026-04-28 09:25 | 22.18002 | 38.96169 | 11906 ft | 371 kts | 21° |
| 2026-04-28 09:26 | 22.20212 | 38.97644 | 12594 ft | 378 kts | 38° |
| 2026-04-28 09:26 | 22.22189 | 38.99543 | 13290 ft | 383 kts | 43° |
| 2026-04-28 09:26 | 22.24120 | 39.01545 | 13946 ft | 387 kts | 43° |
| 2026-04-28 09:26 | 22.26073 | 39.03557 | 14602 ft | 389 kts | 43° |
| 2026-04-28 09:27 | 22.29672 | 39.07898 | 15893 ft | 395 kts | 60° |
| 2026-04-28 09:27 | 22.30744 | 39.10669 | 16518 ft | 397 kts | 76° |
| 2026-04-28 09:27 | 22.31374 | 39.13544 | 17122 ft | 400 kts | 78° |
| 2026-04-28 09:28 | 22.32007 | 39.16485 | 17718 ft | 403 kts | 77° |
| 2026-04-28 09:28 | 22.32648 | 39.19450 | 18294 ft | 407 kts | 77° |
| 2026-04-28 09:28 | 22.33299 | 39.22444 | 18774 ft | 412 kts | 77° |
| 2026-04-28 09:28 | 22.33958 | 39.25474 | 19244 ft | 416 kts | 77° |
| 2026-04-28 09:29 | 22.34625 | 39.28538 | 19713 ft | 421 kts | 77° |
| 2026-04-28 09:29 | 22.35298 | 39.31629 | 20195 ft | 425 kts | 77° |
| 2026-04-28 09:29 | 22.35978 | 39.34757 | 20662 ft | 430 kts | 78° |
| 2026-04-28 09:29 | 22.36663 | 39.37914 | 21142 ft | 434 kts | 78° |
| 2026-04-28 09:30 | 22.37356 | 39.41106 | 21616 ft | 439 kts | 78° |
| 2026-04-28 09:30 | 22.38057 | 39.44339 | 22074 ft | 444 kts | 78° |
| 2026-04-28 09:30 | 22.38763 | 39.47600 | 22543 ft | 448 kts | 78° |
| 2026-04-28 09:30 | 22.39469 | 39.50863 | 22993 ft | 453 kts | 78° |
| 2026-04-28 09:31 | 22.40189 | 39.54196 | 23450 ft | 457 kts | 78° |
| 2026-04-28 09:31 | 22.40916 | 39.57558 | 23812 ft | 462 kts | 78° |
| 2026-04-28 09:31 | 22.41650 | 39.60953 | 24175 ft | 466 kts | 78° |
| 2026-04-28 09:31 | 22.42389 | 39.64378 | 24512 ft | 471 kts | 77° |
| 2026-04-28 09:32 | 22.43136 | 39.67844 | 24863 ft | 475 kts | 77° |
| 2026-04-28 09:32 | 22.43891 | 39.71351 | 25193 ft | 479 kts | 77° |
| 2026-04-28 09:32 | 22.44649 | 39.74873 | 25533 ft | 483 kts | 77° |
| 2026-04-28 09:32 | 22.45403 | 39.78379 | 25834 ft | 487 kts | 76° |
| 2026-04-28 09:33 | 22.46495 | 39.81901 | 26146 ft | 489 kts | 63° |
| 2026-04-28 09:33 | 22.48177 | 39.85019 | 26502 ft | 486 kts | 51° |
| 2026-04-28 09:33 | 22.50419 | 39.87757 | 26656 ft | 487 kts | 39° |
| 2026-04-28 09:33 | 22.52982 | 39.90156 | 26939 ft | 487 kts | 35° |
| 2026-04-28 09:34 | 22.55611 | 39.92475 | 27283 ft | 489 kts | 34° |
| 2026-04-28 09:34 | 22.58243 | 39.94835 | 27554 ft | 493 kts | 35° |
| 2026-04-28 09:34 | 22.60860 | 39.97249 | 27856 ft | 496 kts | 36° |
| 2026-04-28 09:34 | 22.63470 | 39.99707 | 28129 ft | 499 kts | 36° |
| 2026-04-28 09:35 | 22.66081 | 40.02195 | 28393 ft | 502 kts | 36° |
| 2026-04-28 09:35 | 22.68709 | 40.04710 | 28633 ft | 504 kts | 36° |
| 2026-04-28 09:35 | 22.71347 | 40.07238 | 28878 ft | 507 kts | 36° |
| 2026-04-28 09:35 | 22.73991 | 40.09773 | 29121 ft | 509 kts | 36° |
| 2026-04-28 09:36 | 22.76656 | 40.12329 | 29329 ft | 512 kts | 36° |
| 2026-04-28 09:36 | 22.79327 | 40.14891 | 29547 ft | 514 kts | 36° |
| 2026-04-28 09:36 | 22.82014 | 40.17469 | 29769 ft | 516 kts | 36° |
| 2026-04-28 09:36 | 22.84669 | 40.20019 | 29965 ft | 519 kts | 36° |
| 2026-04-28 09:37 | 22.87385 | 40.22628 | 30158 ft | 521 kts | 36° |
| 2026-04-28 09:37 | 22.90106 | 40.25244 | 30358 ft | 523 kts | 36° |
| 2026-04-28 09:37 | 22.92831 | 40.27865 | 30558 ft | 524 kts | 36° |
| 2026-04-28 09:37 | 22.95562 | 40.30494 | 30732 ft | 526 kts | 36° |
| 2026-04-28 09:38 | 22.98301 | 40.33131 | 30938 ft | 527 kts | 36° |
| 2026-04-28 09:38 | 23.01045 | 40.35775 | 31189 ft | 527 kts | 36° |
| 2026-04-28 09:38 | 23.03788 | 40.38420 | 31479 ft | 527 kts | 36° |
| 2026-04-28 09:38 | 23.06534 | 40.41069 | 31733 ft | 526 kts | 36° |
| 2026-04-28 09:39 | 23.09239 | 40.43679 | 31994 ft | 526 kts | 36° |
| 2026-04-28 09:39 | 23.11975 | 40.46321 | 32261 ft | 525 kts | 36° |
| 2026-04-28 09:39 | 23.14705 | 40.48959 | 32543 ft | 525 kts | 36° |
| 2026-04-28 09:39 | 23.17431 | 40.51594 | 32794 ft | 524 kts | 36° |
| 2026-04-28 09:40 | 23.20154 | 40.54228 | 33075 ft | 523 kts | 36° |
| 2026-04-28 09:40 | 23.22877 | 40.56862 | 33293 ft | 524 kts | 36° |
| 2026-04-28 09:40 | 23.25502 | 40.59628 | 33501 ft | 529 kts | 44° |
| 2026-04-28 09:40 | 23.27724 | 40.62847 | 33707 ft | 535 kts | 55° |
| 2026-04-28 09:41 | 23.29445 | 40.66452 | 33922 ft | 539 kts | 66° |
| 2026-04-28 09:41 | 23.30781 | 40.70276 | 34107 ft | 540 kts | 68° |
| 2026-04-28 09:41 | 23.32060 | 40.73965 | 34305 ft | 539 kts | 68° |
| 2026-04-28 09:41 | 23.33385 | 40.77778 | 34508 ft | 538 kts | 68° |
| 2026-04-28 09:42 | 23.34709 | 40.81584 | 34695 ft | 538 kts | 68° |
| 2026-04-28 09:42 | 23.36030 | 40.85388 | 34900 ft | 537 kts | 68° |
| 2026-04-28 09:42 | 23.38668 | 40.92997 | 34981 ft | 536 kts | 68° |
| 2026-04-28 09:43 | 23.41275 | 41.00535 | 34980 ft | 536 kts | 68° |
| 2026-04-28 09:43 | 23.43899 | 41.08132 | 34984 ft | 536 kts | 68° |
| 2026-04-28 09:44 | 23.46518 | 41.15730 | 34978 ft | 536 kts | 68° |
| 2026-04-28 09:44 | 23.49134 | 41.23333 | 34975 ft | 536 kts | 68° |
| 2026-04-28 09:45 | 23.51746 | 41.30937 | 34971 ft | 535 kts | 68° |
| 2026-04-28 09:45 | 23.54354 | 41.38544 | 34964 ft | 535 kts | 68° |
| 2026-04-28 09:46 | 23.56952 | 41.46136 | 34960 ft | 535 kts | 68° |
| 2026-04-28 09:46 | 23.59537 | 41.53701 | 34962 ft | 535 kts | 68° |
| 2026-04-28 09:47 | 23.62130 | 41.61307 | 34969 ft | 535 kts | 68° |
| 2026-04-28 09:47 | 23.64723 | 41.68926 | 34958 ft | 535 kts | 68° |
| 2026-04-28 09:48 | 23.67317 | 41.76560 | 34966 ft | 536 kts | 68° |
| 2026-04-28 09:48 | 23.69787 | 41.84234 | 34966 ft | 537 kts | 70° |
| 2026-04-28 09:49 | 23.72197 | 41.91890 | 34968 ft | 537 kts | 70° |
| 2026-04-28 09:49 | 23.74641 | 41.99605 | 34970 ft | 538 kts | 69° |
| 2026-04-28 09:50 | 23.77234 | 42.07267 | 34975 ft | 538 kts | 68° |
| 2026-04-28 09:50 | 23.79878 | 42.14902 | 34974 ft | 538 kts | 68° |
| 2026-04-28 09:51 | 23.82499 | 42.22557 | 34978 ft | 538 kts | 68° |
| 2026-04-28 09:51 | 23.85096 | 42.30184 | 34978 ft | 538 kts | 68° |
| 2026-04-28 09:52 | 23.87699 | 42.37849 | 34979 ft | 538 kts | 68° |
| 2026-04-28 09:52 | 23.90298 | 42.45512 | 34977 ft | 538 kts | 69° |
| 2026-04-28 09:53 | 23.92895 | 42.53187 | 34976 ft | 537 kts | 69° |
| 2026-04-28 09:53 | 23.95483 | 42.60847 | 34971 ft | 537 kts | 69° |
| 2026-04-28 09:54 | 23.98065 | 42.68506 | 34966 ft | 537 kts | 69° |
| 2026-04-28 09:54 | 24.00646 | 42.76173 | 34966 ft | 537 kts | 69° |
| 2026-04-28 09:55 | 24.03154 | 42.83813 | 34949 ft | 537 kts | 74° |
| 2026-04-28 09:55 | 24.03860 | 42.87810 | 34949 ft | 535 kts | 86° |
| 2026-04-28 09:55 | 24.03897 | 42.91857 | 34942 ft | 531 kts | 98° |
| 2026-04-28 09:56 | 24.03270 | 42.95814 | 34952 ft | 525 kts | 109° |
| 2026-04-28 09:56 | 24.02208 | 42.99628 | 34942 ft | 522 kts | 113° |
| 2026-04-28 09:56 | 23.99914 | 43.07169 | 34958 ft | 523 kts | 112° |
| 2026-04-28 09:57 | 23.97757 | 43.14770 | 34959 ft | 524 kts | 111° |
| 2026-04-28 09:57 | 23.95668 | 43.22406 | 34962 ft | 524 kts | 111° |
| 2026-04-28 09:58 | 23.93583 | 43.30055 | 34963 ft | 525 kts | 111° |
| 2026-04-28 09:58 | 23.91503 | 43.37661 | 34967 ft | 525 kts | 111° |
| 2026-04-28 09:59 | 23.89404 | 43.45315 | 34962 ft | 526 kts | 111° |
| 2026-04-28 09:59 | 23.87303 | 43.52961 | 34965 ft | 526 kts | 111° |
| 2026-04-28 10:00 | 23.85193 | 43.60620 | 34962 ft | 526 kts | 111° |
| 2026-04-28 10:00 | 23.83084 | 43.68262 | 34958 ft | 526 kts | 111° |
| 2026-04-28 10:01 | 23.80971 | 43.75906 | 34951 ft | 525 kts | 111° |
| 2026-04-28 10:01 | 23.78854 | 43.83542 | 34944 ft | 525 kts | 111° |
| 2026-04-28 10:02 | 23.77209 | 43.91328 | 34932 ft | 530 kts | 99° |
| 2026-04-28 10:02 | 23.76607 | 43.99359 | 34927 ft | 530 kts | 97° |
| 2026-04-28 10:03 | 23.76014 | 44.07375 | 34921 ft | 530 kts | 97° |
| 2026-04-28 10:03 | 23.75418 | 44.15338 | 34914 ft | 529 kts | 97° |
| 2026-04-28 10:04 | 23.74814 | 44.23347 | 34908 ft | 529 kts | 97° |
| 2026-04-28 10:04 | 23.74208 | 44.31340 | 34912 ft | 528 kts | 97° |
| 2026-04-28 10:05 | 23.73597 | 44.39341 | 34915 ft | 528 kts | 97° |
| 2026-04-28 10:05 | 23.72983 | 44.47337 | 34917 ft | 528 kts | 97° |
| 2026-04-28 10:06 | 23.72365 | 44.55324 | 34912 ft | 528 kts | 97° |
| 2026-04-28 10:06 | 23.71742 | 44.63320 | 34914 ft | 528 kts | 97° |
| 2026-04-28 10:07 | 23.71120 | 44.71255 | 34921 ft | 528 kts | 97° |
| 2026-04-28 10:07 | 23.70488 | 44.79261 | 34921 ft | 529 kts | 97° |
| 2026-04-28 10:08 | 23.69853 | 44.87257 | 34921 ft | 529 kts | 97° |
| 2026-04-28 10:08 | 23.69213 | 44.95252 | 34916 ft | 529 kts | 97° |
| 2026-04-28 10:09 | 23.68572 | 45.03200 | 34918 ft | 529 kts | 97° |
| 2026-04-28 10:09 | 23.67923 | 45.11193 | 34912 ft | 529 kts | 97° |
| 2026-04-28 10:10 | 23.67269 | 45.19205 | 34914 ft | 529 kts | 97° |
| 2026-04-28 10:10 | 23.66611 | 45.27205 | 34912 ft | 529 kts | 97° |
| 2026-04-28 10:11 | 23.65949 | 45.35212 | 34906 ft | 529 kts | 97° |
| 2026-04-28 10:11 | 23.65284 | 45.43217 | 34905 ft | 530 kts | 97° |
| 2026-04-28 10:12 | 23.64617 | 45.51170 | 34904 ft | 529 kts | 97° |
| 2026-04-28 10:12 | 23.63944 | 45.59167 | 34897 ft | 529 kts | 97° |
| 2026-04-28 10:13 | 23.63266 | 45.67158 | 34891 ft | 529 kts | 97° |
| 2026-04-28 10:13 | 23.62699 | 45.73799 | 34884 ft | 528 kts | 97° |
| 2026-04-28 10:14 | 23.61903 | 45.83070 | 34876 ft | 528 kts | 97° |
| 2026-04-28 10:14 | 23.61214 | 45.91041 | 34873 ft | 527 kts | 97° |
| 2026-04-28 10:15 | 23.60639 | 45.97663 | 34868 ft | 527 kts | 97° |
| 2026-04-28 10:15 | 23.59943 | 46.05625 | 34864 ft | 527 kts | 97° |
| 2026-04-28 10:16 | 23.59245 | 46.13572 | 34862 ft | 527 kts | 97° |
| 2026-04-28 10:16 | 23.58541 | 46.21533 | 34863 ft | 527 kts | 97° |
| 2026-04-28 10:17 | 23.57833 | 46.29484 | 34854 ft | 527 kts | 97° |
| 2026-04-28 10:17 | 23.57122 | 46.37443 | 34852 ft | 527 kts | 97° |
| 2026-04-28 10:18 | 23.56407 | 46.45399 | 34849 ft | 527 kts | 97° |
| 2026-04-28 10:18 | 23.55687 | 46.53352 | 34846 ft | 527 kts | 97° |
| 2026-04-28 10:19 | 23.54969 | 46.61244 | 34840 ft | 526 kts | 97° |
| 2026-04-28 10:19 | 23.54241 | 46.69190 | 34831 ft | 526 kts | 97° |
| 2026-04-28 10:20 | 23.53511 | 46.77127 | 34816 ft | 526 kts | 97° |
| 2026-04-28 10:20 | 23.52778 | 46.85045 | 34810 ft | 525 kts | 97° |
| 2026-04-28 10:21 | 23.52040 | 46.92966 | 34802 ft | 525 kts | 97° |
| 2026-04-28 10:21 | 23.51298 | 47.00890 | 34810 ft | 525 kts | 97° |
| 2026-04-28 10:22 | 23.50554 | 47.08799 | 34802 ft | 524 kts | 97° |
| 2026-04-28 10:22 | 23.49811 | 47.16656 | 34799 ft | 524 kts | 97° |
| 2026-04-28 10:23 | 23.49059 | 47.24562 | 34798 ft | 524 kts | 97° |
| 2026-04-28 10:23 | 23.48303 | 47.32460 | 34794 ft | 524 kts | 97° |
| 2026-04-28 10:24 | 23.47543 | 47.40362 | 34793 ft | 524 kts | 97° |
| 2026-04-28 10:24 | 23.46780 | 47.48253 | 34793 ft | 523 kts | 97° |
| 2026-04-28 10:25 | 23.46014 | 47.56136 | 34788 ft | 523 kts | 97° |
| 2026-04-28 10:25 | 23.45249 | 47.63971 | 34783 ft | 523 kts | 97° |
| 2026-04-28 10:26 | 23.44475 | 47.71850 | 34785 ft | 523 kts | 97° |
| 2026-04-28 10:26 | 23.43697 | 47.79733 | 34781 ft | 523 kts | 97° |
| 2026-04-28 10:27 | 23.42916 | 47.87605 | 34778 ft | 523 kts | 97° |
| 2026-04-28 10:27 | 23.42132 | 47.95473 | 34775 ft | 523 kts | 97° |
| 2026-04-28 10:28 | 23.41343 | 48.03341 | 34773 ft | 523 kts | 97° |
| 2026-04-28 10:29 | 23.40159 | 48.15083 | 34768 ft | 522 kts | 97° |
| 2026-04-28 10:29 | 23.39361 | 48.22949 | 34766 ft | 522 kts | 97° |
| 2026-04-28 10:30 | 23.38558 | 48.30814 | 34769 ft | 522 kts | 97° |
| 2026-04-28 10:30 | 23.38029 | 48.38694 | 34763 ft | 522 kts | 93° |
| 2026-04-28 10:31 | 23.37722 | 48.46593 | 34764 ft | 522 kts | 93° |
| 2026-04-28 10:31 | 23.37403 | 48.54491 | 34761 ft | 522 kts | 93° |
| 2026-04-28 10:32 | 23.37078 | 48.62398 | 34762 ft | 522 kts | 93° |
| 2026-04-28 10:32 | 23.36750 | 48.70293 | 34759 ft | 522 kts | 93° |
| 2026-04-28 10:33 | 23.36420 | 48.78130 | 34757 ft | 522 kts | 93° |
| 2026-04-28 10:33 | 23.36084 | 48.86022 | 34758 ft | 521 kts | 93° |
| 2026-04-28 10:34 | 23.35745 | 48.93905 | 34756 ft | 521 kts | 93° |
| 2026-04-28 10:34 | 23.35402 | 49.01775 | 34753 ft | 521 kts | 93° |
| 2026-04-28 10:35 | 23.35054 | 49.09652 | 34751 ft | 520 kts | 93° |
| 2026-04-28 10:35 | 23.34702 | 49.17518 | 34753 ft | 520 kts | 93° |
| 2026-04-28 10:36 | 23.34349 | 49.25395 | 34751 ft | 520 kts | 93° |
| 2026-04-28 10:36 | 23.33992 | 49.33249 | 34750 ft | 520 kts | 93° |
| 2026-04-28 10:37 | 23.33630 | 49.41104 | 34750 ft | 520 kts | 93° |
| 2026-04-28 10:37 | 23.33267 | 49.48906 | 34750 ft | 519 kts | 93° |
| 2026-04-28 10:38 | 23.32898 | 49.56757 | 34750 ft | 519 kts | 93° |
| 2026-04-28 10:38 | 23.32525 | 49.64611 | 34752 ft | 519 kts | 93° |
| 2026-04-28 10:39 | 23.32148 | 49.72451 | 34753 ft | 519 kts | 93° |
| 2026-04-28 10:39 | 23.31768 | 49.80282 | 34754 ft | 519 kts | 93° |
| 2026-04-28 10:40 | 23.31384 | 49.88118 | 34757 ft | 518 kts | 93° |
| 2026-04-28 10:40 | 23.30996 | 49.95951 | 34756 ft | 518 kts | 93° |
| 2026-04-28 10:41 | 23.30605 | 50.03776 | 34752 ft | 518 kts | 93° |
| 2026-04-28 10:41 | 23.30212 | 50.11545 | 34750 ft | 517 kts | 93° |
| 2026-04-28 10:42 | 23.29814 | 50.19353 | 34754 ft | 517 kts | 93° |
| 2026-04-28 10:42 | 23.29411 | 50.27165 | 34751 ft | 517 kts | 93° |
| 2026-04-28 10:43 | 23.29006 | 50.34962 | 34748 ft | 516 kts | 93° |
| 2026-04-28 10:43 | 23.28596 | 50.42763 | 34752 ft | 516 kts | 93° |
| 2026-04-28 10:44 | 23.28183 | 50.50553 | 34748 ft | 516 kts | 93° |
| 2026-04-28 10:44 | 23.27766 | 50.58347 | 34745 ft | 516 kts | 93° |
| 2026-04-28 10:45 | 23.27349 | 50.66075 | 34748 ft | 515 kts | 93° |
| 2026-04-28 10:45 | 23.26924 | 50.73865 | 34745 ft | 515 kts | 93° |
| 2026-04-28 10:46 | 23.26496 | 50.81645 | 34747 ft | 515 kts | 93° |
| 2026-04-28 10:46 | 23.26064 | 50.89434 | 34750 ft | 515 kts | 93° |
| 2026-04-28 10:47 | 23.25629 | 50.97210 | 34749 ft | 515 kts | 93° |
| 2026-04-28 10:47 | 23.25189 | 51.04994 | 34750 ft | 515 kts | 93° |
| 2026-04-28 10:48 | 23.24747 | 51.12767 | 34749 ft | 515 kts | 93° |
| 2026-04-28 10:48 | 23.24303 | 51.20492 | 34751 ft | 515 kts | 93° |
| 2026-04-28 10:49 | 23.23847 | 51.28266 | 34748 ft | 515 kts | 93° |
| 2026-04-28 10:49 | 23.23388 | 51.36034 | 34746 ft | 514 kts | 93° |
| 2026-04-28 10:50 | 23.22707 | 51.43769 | 34743 ft | 514 kts | 101° |
| 2026-04-28 10:50 | 23.20724 | 51.51214 | 34743 ft | 512 kts | 114° |
| 2026-04-28 10:51 | 23.17965 | 51.58287 | 34742 ft | 511 kts | 114° |
| 2026-04-28 10:51 | 23.15205 | 51.65408 | 34739 ft | 511 kts | 114° |
| 2026-04-28 10:52 | 23.12439 | 51.72527 | 34740 ft | 511 kts | 114° |
| 2026-04-28 10:52 | 23.09670 | 51.79635 | 34741 ft | 511 kts | 114° |
| 2026-04-28 10:53 | 23.06894 | 51.86747 | 34737 ft | 511 kts | 114° |
| 2026-04-28 10:53 | 23.04118 | 51.93850 | 34738 ft | 511 kts | 114° |
| 2026-04-28 10:54 | 23.01337 | 52.00954 | 34739 ft | 511 kts | 114° |
| 2026-04-28 10:54 | 22.98559 | 52.08044 | 34739 ft | 511 kts | 114° |
| 2026-04-28 10:55 | 22.95788 | 52.15106 | 34743 ft | 510 kts | 114° |
| 2026-04-28 10:55 | 22.93001 | 52.22198 | 34742 ft | 510 kts | 114° |
| 2026-04-28 10:56 | 22.90214 | 52.29278 | 34741 ft | 510 kts | 114° |
| 2026-04-28 10:56 | 22.87428 | 52.36344 | 34742 ft | 510 kts | 114° |
| 2026-04-28 10:57 | 22.84638 | 52.43420 | 34741 ft | 509 kts | 113° |
| 2026-04-28 10:57 | 22.82692 | 52.50795 | 34740 ft | 509 kts | 99° |
| 2026-04-28 10:58 | 22.82201 | 52.58396 | 34739 ft | 508 kts | 90° |
| 2026-04-28 10:58 | 22.82014 | 52.66052 | 34738 ft | 508 kts | 90° |
| 2026-04-28 10:59 | 22.81812 | 52.73711 | 34734 ft | 508 kts | 91° |
| 2026-04-28 10:59 | 22.81607 | 52.81359 | 34733 ft | 507 kts | 91° |
| 2026-04-28 11:00 | 22.81401 | 52.88972 | 34733 ft | 507 kts | 91° |
| 2026-04-28 11:00 | 22.81191 | 52.96609 | 34735 ft | 507 kts | 91° |
| 2026-04-28 11:01 | 22.80977 | 53.04242 | 34735 ft | 507 kts | 91° |
| 2026-04-28 11:01 | 22.80759 | 53.11883 | 34736 ft | 507 kts | 91° |
| 2026-04-28 11:02 | 22.80576 | 53.18226 | 34739 ft | 506 kts | 91° |
| 2026-04-28 11:02 | 22.80352 | 53.25857 | 34738 ft | 506 kts | 91° |
| 2026-04-28 11:03 | 22.80124 | 53.33485 | 34738 ft | 506 kts | 91° |
| 2026-04-28 11:03 | 22.79893 | 53.41119 | 34737 ft | 506 kts | 91° |
| 2026-04-28 11:04 | 22.79660 | 53.48689 | 34735 ft | 506 kts | 91° |
| 2026-04-28 11:04 | 22.79421 | 53.56304 | 34738 ft | 505 kts | 91° |
| 2026-04-28 11:05 | 22.79179 | 53.63919 | 34737 ft | 505 kts | 91° |
| 2026-04-28 11:05 | 22.78934 | 53.71542 | 34739 ft | 505 kts | 91° |
| 2026-04-28 11:06 | 22.78687 | 53.79101 | 34741 ft | 505 kts | 91° |
| 2026-04-28 11:06 | 22.78434 | 53.86709 | 34741 ft | 505 kts | 91° |
| 2026-04-28 11:07 | 22.78178 | 53.94305 | 34748 ft | 504 kts | 91° |
| 2026-04-28 11:07 | 22.78539 | 54.01882 | 34736 ft | 501 kts | 79° |
| 2026-04-28 11:08 | 22.79991 | 54.09221 | 34735 ft | 500 kts | 75° |
| 2026-04-28 11:08 | 22.81489 | 54.16582 | 34731 ft | 500 kts | 76° |
| 2026-04-28 11:09 | 22.82982 | 54.23949 | 34735 ft | 500 kts | 76° |
| 2026-04-28 11:09 | 22.84466 | 54.31283 | 34738 ft | 500 kts | 76° |
| 2026-04-28 11:10 | 22.85950 | 54.38633 | 34734 ft | 499 kts | 76° |
| 2026-04-28 11:10 | 22.87432 | 54.45993 | 34735 ft | 499 kts | 76° |
| 2026-04-28 11:11 | 22.88912 | 54.53358 | 34735 ft | 499 kts | 76° |
| 2026-04-28 11:11 | 22.90389 | 54.60728 | 34732 ft | 500 kts | 76° |
| 2026-04-28 11:12 | 22.91863 | 54.68097 | 34732 ft | 500 kts | 76° |
| 2026-04-28 11:12 | 22.93335 | 54.75480 | 34734 ft | 500 kts | 76° |
| 2026-04-28 11:13 | 22.94794 | 54.82817 | 34736 ft | 500 kts | 76° |
| 2026-04-28 11:13 | 22.96260 | 54.90202 | 34738 ft | 501 kts | 76° |
| 2026-04-28 11:14 | 22.97722 | 54.97593 | 34749 ft | 501 kts | 76° |
| 2026-04-28 11:14 | 22.99184 | 55.05002 | 34773 ft | 502 kts | 76° |
| 2026-04-28 11:15 | 23.00645 | 55.12417 | 34765 ft | 502 kts | 76° |
| 2026-04-28 11:15 | 23.01643 | 55.16023 | 34774 ft | 498 kts | 64° |
| 2026-04-28 11:15 | 23.03251 | 55.19333 | 34764 ft | 492 kts | 52° |
| 2026-04-28 11:15 | 23.05360 | 55.22159 | 34767 ft | 485 kts | 40° |
| 2026-04-28 11:16 | 23.07926 | 55.24497 | 34761 ft | 478 kts | 29° |
| 2026-04-28 11:16 | 23.10800 | 55.26247 | 34763 ft | 470 kts | 18° |
| 2026-04-28 11:16 | 23.13875 | 55.27393 | 34763 ft | 464 kts | 9° |
| 2026-04-28 11:17 | 23.20117 | 55.29211 | 34767 ft | 465 kts | 10° |
| 2026-04-28 11:17 | 23.26372 | 55.31051 | 34773 ft | 465 kts | 10° |
| 2026-04-28 11:18 | 23.32631 | 55.32898 | 34783 ft | 466 kts | 10° |
| 2026-04-28 11:18 | 23.38859 | 55.34737 | 34788 ft | 467 kts | 10° |
| 2026-04-28 11:19 | 23.45128 | 55.36590 | 34792 ft | 467 kts | 10° |
| 2026-04-28 11:19 | 23.51408 | 55.38448 | 34795 ft | 467 kts | 9° |
| 2026-04-28 11:20 | 23.57695 | 55.40308 | 34799 ft | 468 kts | 9° |
| 2026-04-28 11:20 | 23.63975 | 55.42168 | 34804 ft | 468 kts | 9° |
| 2026-04-28 11:21 | 23.70230 | 55.44022 | 34810 ft | 468 kts | 9° |
| 2026-04-28 11:21 | 23.76503 | 55.45886 | 34798 ft | 463 kts | 9° |
| 2026-04-28 11:22 | 23.82656 | 55.47718 | 34804 ft | 457 kts | 9° |
| 2026-04-28 11:22 | 23.88823 | 55.49546 | 34809 ft | 459 kts | 9° |
| 2026-04-28 11:23 | 23.94991 | 55.51378 | 34810 ft | 459 kts | 9° |
| 2026-04-28 11:23 | 24.00945 | 55.54017 | 34809 ft | 471 kts | 24° |
| 2026-04-28 11:24 | 24.06261 | 55.58364 | 34809 ft | 483 kts | 37° |
| 2026-04-28 11:24 | 24.11238 | 55.63306 | 34808 ft | 483 kts | 36° |
| 2026-04-28 11:25 | 24.16227 | 55.68244 | 34808 ft | 484 kts | 36° |
| 2026-04-28 11:25 | 24.21217 | 55.73193 | 34810 ft | 484 kts | 37° |
| 2026-04-28 11:26 | 24.26206 | 55.78150 | 34814 ft | 484 kts | 37° |
| 2026-04-28 11:26 | 24.31203 | 55.83120 | 34818 ft | 485 kts | 37° |
| 2026-04-28 11:27 | 24.36202 | 55.88098 | 34824 ft | 485 kts | 37° |
| 2026-04-28 11:27 | 24.41170 | 55.93050 | 34831 ft | 486 kts | 37° |
| 2026-04-28 11:28 | 24.46173 | 55.98040 | 34832 ft | 486 kts | 37° |
| 2026-04-28 11:28 | 24.51174 | 56.03034 | 34825 ft | 486 kts | 37° |
| 2026-04-28 11:29 | 24.56181 | 56.08044 | 34818 ft | 486 kts | 37° |
| 2026-04-28 11:29 | 24.61176 | 56.13061 | 34813 ft | 487 kts | 37° |
| 2026-04-28 11:30 | 24.66180 | 56.18071 | 34809 ft | 487 kts | 36° |
| 2026-04-28 11:30 | 24.73677 | 56.25578 | 34796 ft | 488 kts | 36° |
| 2026-04-28 11:31 | 24.78691 | 56.30611 | 34790 ft | 488 kts | 37° |
| 2026-04-28 11:31 | 24.83999 | 56.35125 | 34733 ft | 474 kts | 20° |
| 2026-04-28 11:32 | 24.87027 | 56.36459 | 34722 ft | 464 kts | 8° |
| 2026-04-28 11:32 | 24.90128 | 56.37060 | 34721 ft | 452 kts | 356° |
| 2026-04-28 11:32 | 24.93234 | 56.36930 | 34719 ft | 441 kts | 344° |
| 2026-04-28 11:32 | 24.96167 | 56.36083 | 34718 ft | 431 kts | 332° |
| 2026-04-28 11:33 | 24.98796 | 56.34572 | 34724 ft | 422 kts | 320° |
| 2026-04-28 11:33 | 25.01115 | 56.32605 | 34727 ft | 420 kts | 316° |
| 2026-04-28 11:33 | 25.05536 | 56.28390 | 34789 ft | 419 kts | 311° |
| 2026-04-28 11:34 | 25.09804 | 56.23979 | 34798 ft | 421 kts | 314° |
| 2026-04-28 11:34 | 25.14167 | 56.19712 | 34802 ft | 422 kts | 314° |
| 2026-04-28 11:35 | 25.18538 | 56.15392 | 34807 ft | 421 kts | 310° |
| 2026-04-28 11:35 | 25.22042 | 56.10301 | 34806 ft | 415 kts | 297° |
| 2026-04-28 11:36 | 25.24375 | 56.04499 | 34807 ft | 413 kts | 291° |
| 2026-04-28 11:36 | 25.26797 | 55.98739 | 34809 ft | 413 kts | 294° |
| 2026-04-28 11:37 | 25.29265 | 55.93016 | 34798 ft | 411 kts | 288° |
| 2026-04-28 11:37 | 25.29933 | 55.89959 | 34791 ft | 409 kts | 276° |
| 2026-04-28 11:37 | 25.29931 | 55.86863 | 34786 ft | 410 kts | 264° |
| 2026-04-28 11:38 | 25.29262 | 55.83797 | 34783 ft | 414 kts | 252° |
| 2026-04-28 11:38 | 25.27944 | 55.80949 | 34777 ft | 420 kts | 240° |
| 2026-04-28 11:38 | 25.26038 | 55.78470 | 34766 ft | 428 kts | 228° |
| 2026-04-28 11:38 | 25.23625 | 55.76486 | 34761 ft | 438 kts | 216° |
| 2026-04-28 11:39 | 25.20810 | 55.75104 | 34754 ft | 449 kts | 204° |
| 2026-04-28 11:39 | 25.17706 | 55.74399 | 34752 ft | 461 kts | 192° |
| 2026-04-28 11:39 | 25.14468 | 55.74424 | 34737 ft | 472 kts | 179° |
| 2026-04-28 11:39 | 25.11213 | 55.75198 | 34745 ft | 483 kts | 167° |
| 2026-04-28 11:40 | 25.08109 | 55.76701 | 34747 ft | 493 kts | 155° |
| 2026-04-28 11:40 | 25.05279 | 55.78886 | 34742 ft | 501 kts | 143° |
| 2026-04-28 11:40 | 25.02854 | 55.81668 | 34746 ft | 508 kts | 130° |
| 2026-04-28 11:40 | 25.00930 | 55.84957 | 34739 ft | 512 kts | 118° |
| 2026-04-28 11:41 | 24.99603 | 55.88600 | 34751 ft | 515 kts | 106° |
| 2026-04-28 11:41 | 24.98922 | 55.92476 | 34753 ft | 515 kts | 94° |
| 2026-04-28 11:41 | 24.99215 | 56.00296 | 34758 ft | 514 kts | 82° |
| 2026-04-28 11:42 | 24.99544 | 56.08187 | 34763 ft | 518 kts | 96° |
| 2026-04-28 11:42 | 24.98829 | 56.12073 | 34756 ft | 518 kts | 108° |
| 2026-04-28 11:42 | 24.97475 | 56.15750 | 34762 ft | 517 kts | 120° |
| 2026-04-28 11:43 | 24.95545 | 56.19064 | 34769 ft | 513 kts | 132° |
| 2026-04-28 11:43 | 24.93293 | 56.22112 | 34773 ft | 513 kts | 131° |
| 2026-04-28 11:43 | 24.88870 | 56.28314 | 34787 ft | 514 kts | 131° |
| 2026-04-28 11:44 | 24.84459 | 56.34517 | 34800 ft | 514 kts | 131° |
| 2026-04-28 11:44 | 24.80055 | 56.40734 | 34809 ft | 515 kts | 131° |
| 2026-04-28 11:45 | 24.75647 | 56.46951 | 34808 ft | 515 kts | 131° |
| 2026-04-28 11:45 | 24.71240 | 56.53162 | 34805 ft | 514 kts | 131° |
| 2026-04-28 11:46 | 24.66868 | 56.59317 | 34786 ft | 513 kts | 131° |
| 2026-04-28 11:46 | 24.62468 | 56.65500 | 34770 ft | 512 kts | 131° |
| 2026-04-28 11:47 | 24.58074 | 56.71668 | 34762 ft | 511 kts | 131° |
| 2026-04-28 11:47 | 24.53695 | 56.77813 | 34751 ft | 510 kts | 131° |
| 2026-04-28 11:48 | 24.49326 | 56.83939 | 34745 ft | 508 kts | 131° |
| 2026-04-28 11:48 | 24.44996 | 56.90003 | 34739 ft | 507 kts | 131° |
| 2026-04-28 11:49 | 24.40640 | 56.96094 | 34740 ft | 506 kts | 131° |
| 2026-04-28 11:49 | 24.36297 | 57.02163 | 34743 ft | 505 kts | 131° |
| 2026-04-28 11:50 | 24.31952 | 57.08228 | 34739 ft | 505 kts | 131° |
| 2026-04-28 11:50 | 24.28343 | 57.13260 | 34738 ft | 504 kts | 131° |
| 2026-04-28 11:51 | 24.23298 | 57.20286 | 34734 ft | 504 kts | 131° |
| 2026-04-28 11:51 | 24.19658 | 57.25347 | 34736 ft | 504 kts | 131° |
| 2026-04-28 11:52 | 24.15338 | 57.31343 | 34735 ft | 505 kts | 131° |
| 2026-04-28 11:52 | 24.10975 | 57.37386 | 34739 ft | 505 kts | 131° |